createdAt,value
2023-03-21T00:00:29.628Z,8.92
2023-03-21T00:05:57.417Z,8.92
2023-03-21T00:11:06.754Z,8.91
2023-03-21T00:16:23.348Z,8.87
2023-03-21T00:21:49.118Z,8.84
2023-03-21T00:27:10.690Z,8.85
2023-03-21T00:32:27.364Z,8.83
2023-03-21T00:37:35.984Z,8.79
2023-03-21T00:42:43.694Z,8.74
2023-03-21T00:47:51.641Z,8.69
2023-03-21T00:52:59.718Z,8.67
2023-03-21T00:58:08.372Z,8.66
2023-03-21T01:14:37.060Z,8.77
2023-03-21T01:19:51.482Z,8.68
2023-03-21T01:25:12.168Z,8.61
2023-03-21T01:30:31.222Z,8.57
2023-03-21T01:35:49.177Z,8.56
2023-03-21T01:41:06.188Z,8.55
2023-03-21T01:46:47.781Z,8.52
2023-03-21T01:52:10.176Z,8.49
2023-03-21T01:57:42.369Z,8.47
2023-03-21T02:02:58.142Z,8.47
2023-03-21T02:08:10.873Z,8.53
2023-03-21T02:13:18.541Z,8.55
2023-03-21T02:18:33.484Z,8.55
2023-03-21T02:24:08.206Z,8.55
2023-03-21T02:29:32.967Z,8.54
2023-03-21T02:34:58.765Z,8.54
2023-03-21T02:40:22.050Z,8.56
2023-03-21T02:45:37.388Z,8.59
2023-03-21T02:50:49.712Z,8.58
2023-03-21T02:55:58.521Z,8.58
2023-03-21T03:01:09.996Z,8.57
2023-03-21T03:06:23.216Z,8.56
2023-03-21T03:11:33.906Z,8.56
2023-03-21T03:16:47.319Z,8.54
2023-03-21T03:22:01.283Z,8.47
2023-03-21T03:27:13.698Z,8.39
2023-03-21T03:32:28.224Z,8.33
2023-03-21T03:37:38.100Z,8.29
2023-03-21T03:42:51.010Z,8.26
2023-03-21T03:48:06.737Z,8.21
2023-03-21T03:53:23.398Z,8.15
2023-03-21T03:58:44.610Z,8.11
2023-03-21T04:04:06.796Z,8.12
2023-03-21T04:09:25.108Z,8.17
2023-03-21T04:14:44.414Z,8.19
2023-03-21T04:19:57.757Z,8.16
2023-03-21T04:25:13.036Z,8.14
2023-03-21T04:30:21.068Z,8.11
2023-03-21T04:35:28.986Z,8.08
2023-03-21T04:40:36.814Z,8.06
2023-03-21T04:45:44.614Z,8.05
2023-03-21T04:50:52.122Z,8.02
2023-03-21T04:56:00.858Z,8.03
2023-03-21T05:01:09.404Z,8.03
2023-03-21T05:06:17.616Z,8.07
2023-03-21T05:11:25.157Z,8.04
2023-03-21T05:16:33.226Z,8.01
2023-03-21T05:21:42.922Z,8.02
2023-03-21T05:26:52.604Z,8.02
2023-03-21T05:32:01.330Z,8.00
2023-03-21T05:37:08.792Z,7.96
2023-03-21T05:42:16.510Z,7.91
2023-03-21T05:47:23.929Z,7.89
2023-03-21T05:52:31.754Z,7.87
2023-03-21T05:57:41.286Z,7.89
2023-03-21T06:02:48.855Z,7.90
2023-03-21T06:07:57.111Z,7.90
2023-03-21T06:13:06.881Z,7.89
2023-03-21T06:18:14.452Z,7.89
2023-03-21T06:23:23.129Z,7.88
2023-03-21T06:28:31.463Z,7.89
2023-03-21T06:33:39.579Z,7.92
2023-03-21T06:38:49.131Z,7.93
2023-03-21T06:43:56.630Z,7.99
2023-03-21T06:49:04.341Z,8.04
2023-03-21T06:54:12.798Z,8.06
2023-03-21T06:59:20.618Z,8.05
2023-03-21T07:04:28.708Z,8.05
2023-03-21T07:09:37.450Z,8.09
2023-03-21T07:14:45.162Z,8.24
2023-03-21T07:19:52.883Z,8.36
2023-03-21T07:25:05.387Z,8.43
2023-03-21T07:30:16.893Z,8.57
2023-03-21T07:35:24.813Z,8.67
2023-03-21T07:40:32.520Z,8.86
2023-03-21T07:45:41.048Z,8.94
2023-03-21T07:50:50.612Z,8.93
2023-03-21T07:55:58.789Z,8.89
2023-03-21T08:01:06.868Z,8.88
2023-03-21T08:06:15.646Z,8.84
2023-03-21T08:11:24.354Z,8.88
2023-03-21T08:16:32.095Z,8.92
2023-03-21T08:21:41.123Z,8.90
2023-03-21T08:26:49.432Z,8.86
2023-03-21T08:31:58.402Z,8.84
2023-03-21T08:37:05.960Z,8.81
2023-03-21T08:42:14.009Z,8.81
2023-03-21T08:47:22.769Z,8.79
2023-03-21T08:52:31.350Z,8.70
2023-03-21T08:57:39.568Z,8.70
2023-03-21T09:02:49.729Z,8.78
2023-03-21T09:07:57.946Z,8.92
2023-03-21T09:13:06.632Z,9.09
2023-03-21T09:18:15.345Z,9.29
2023-03-21T09:23:24.708Z,9.42
2023-03-21T09:28:32.403Z,9.50
2023-03-21T09:33:41.568Z,9.51
2023-03-21T09:38:51.298Z,9.55
2023-03-21T09:44:19.232Z,9.57
2023-03-21T09:49:31.796Z,9.59
2023-03-21T09:54:44.945Z,9.64
2023-03-21T09:59:55.230Z,9.68
2023-03-21T10:05:09.548Z,9.69
2023-03-21T10:10:23.968Z,9.67
2023-03-21T10:15:32.202Z,9.70
2023-03-21T10:20:43.580Z,9.71
2023-03-21T10:25:55.198Z,9.67
2023-03-21T10:31:07.764Z,9.66
2023-03-21T10:36:19.740Z,9.62
2023-03-21T10:41:27.568Z,9.63
2023-03-21T10:46:36.677Z,9.67
2023-03-21T10:51:49.034Z,9.76
2023-03-21T10:57:02.876Z,9.81
2023-03-21T11:02:21.750Z,9.83
2023-03-21T11:07:32.409Z,9.88
2023-03-21T11:12:42.906Z,9.96
2023-03-21T11:17:51.330Z,10.04
2023-03-21T11:22:59.368Z,10.05
2023-03-21T11:28:15.793Z,10.06
2023-03-21T11:33:28.162Z,10.05
2023-03-21T11:38:40.511Z,9.99
2023-03-21T11:43:54.554Z,9.95
2023-03-21T11:49:03.188Z,9.90
2023-03-21T11:54:19.763Z,9.87
2023-03-21T11:59:40.174Z,9.85
2023-03-21T12:04:54.662Z,9.75
2023-03-21T12:10:20.733Z,9.61
2023-03-21T12:15:37.541Z,9.51
2023-03-21T12:20:51.926Z,9.51
2023-03-21T12:26:07.197Z,9.58
2023-03-21T12:31:26.967Z,9.68
2023-03-21T12:37:00.895Z,9.81
2023-03-21T12:42:25.851Z,9.89
2023-03-21T12:47:35.943Z,9.99
2023-03-21T12:52:46.485Z,10.05
2023-03-21T12:58:00.142Z,10.07
2023-03-21T13:03:13.995Z,10.05
2023-03-21T13:08:27.854Z,10.02
2023-03-21T13:13:40.316Z,9.91
2023-03-21T13:19:02.123Z,9.79
2023-03-21T13:24:25.964Z,9.75
2023-03-21T13:29:37.206Z,9.76
2023-03-21T13:34:45.333Z,9.76
2023-03-21T13:39:53.447Z,9.77
2023-03-21T13:45:04.076Z,9.81
2023-03-21T13:50:35.461Z,9.84
2023-03-21T13:55:46.762Z,9.82
2023-03-21T14:01:14.360Z,9.79
2023-03-21T14:06:22.848Z,9.75
2023-03-21T14:11:34.811Z,9.71
2023-03-21T14:16:45.693Z,9.65
2023-03-21T14:21:55.979Z,9.54
2023-03-21T14:27:05.165Z,9.38
2023-03-21T14:32:24.960Z,9.23
2023-03-21T14:37:40.049Z,9.14
2023-03-21T14:42:52.880Z,9.07
2023-03-21T14:48:02.796Z,9.03
2023-03-21T14:53:13.445Z,9.01
2023-03-21T14:58:21.142Z,8.99
2023-03-21T15:03:28.937Z,8.94
2023-03-21T15:08:36.759Z,8.92
2023-03-21T15:13:50.466Z,8.94
2023-03-21T15:18:58.781Z,8.99
2023-03-21T15:24:15.200Z,8.95
2023-03-21T15:29:23.434Z,8.91
2023-03-21T15:34:32.882Z,8.88
2023-03-21T15:39:40.789Z,8.87
2023-03-21T15:44:53.483Z,8.88
2023-03-21T15:50:02.810Z,8.91
2023-03-21T15:55:26.777Z,8.91
2023-03-21T16:00:41.163Z,8.90
2023-03-21T16:06:06.072Z,8.85
2023-03-21T16:11:19.956Z,8.82
2023-03-21T16:16:30.559Z,8.81
2023-03-21T16:21:39.762Z,8.77
2023-03-21T16:26:51.157Z,8.74
2023-03-21T16:31:59.086Z,8.73
2023-03-21T16:37:06.897Z,8.75
2023-03-21T16:42:15.697Z,8.75
2023-03-21T16:47:25.151Z,8.72
2023-03-21T16:52:33.713Z,8.67
2023-03-21T16:57:42.556Z,8.62
2023-03-21T17:02:51.897Z,8.57
2023-03-21T17:08:02.573Z,8.55
2023-03-21T17:13:11.294Z,8.53
2023-03-21T17:18:19.965Z,8.53
2023-03-21T17:23:28.317Z,8.46
2023-03-21T17:28:36.907Z,8.32
2023-03-21T17:33:45.408Z,8.15
2023-03-21T17:38:53.234Z,8.00
2023-03-21T17:44:01.058Z,7.90
2023-03-21T17:49:10.290Z,7.88
2023-03-21T17:54:17.727Z,7.88
2023-03-21T17:59:25.833Z,7.88
2023-03-21T18:04:33.617Z,7.92
2023-03-21T18:09:41.343Z,7.99
2023-03-21T18:14:48.736Z,8.04
2023-03-21T18:19:57.531Z,8.00
2023-03-21T18:25:09.455Z,7.99
2023-03-21T18:30:53.147Z,8.00
2023-03-21T18:35:48.618Z,8.00
2023-03-21T18:40:56.641Z,8.01
2023-03-21T18:46:05.127Z,7.99
2023-03-21T18:51:13.162Z,7.95
2023-03-21T18:57:27.338Z,7.96
2023-03-21T19:01:50.371Z,8.00
2023-03-21T19:06:58.923Z,8.00
2023-03-21T19:12:07.442Z,8.01
2023-03-21T19:18:11.358Z,8.00
2023-03-21T19:22:44.472Z,7.98
2023-03-21T19:27:52.352Z,8.02
2023-03-21T19:33:00.312Z,8.03
2023-03-21T19:38:08.553Z,8.03
2023-03-21T19:43:33.044Z,8.06
2023-03-21T19:48:44.062Z,8.06
2023-03-21T19:53:52.696Z,8.03
2023-03-21T19:59:02.029Z,7.95
2023-03-21T20:04:09.531Z,7.89
2023-03-21T20:09:50.382Z,7.95
2023-03-21T20:14:49.081Z,7.97
2023-03-21T20:19:58.269Z,7.97
2023-03-21T20:25:09.049Z,8.03
2023-03-21T20:30:19.899Z,8.07
2023-03-21T20:36:00.688Z,8.03
2023-03-21T20:49:37.466Z,7.83
2023-03-21T20:54:45.833Z,7.78
2023-03-21T20:59:53.379Z,7.79
2023-03-21T21:10:28.762Z,7.81
2023-03-21T21:15:37.711Z,7.86
2023-03-21T21:20:45.549Z,7.97
2023-03-21T21:25:55.775Z,8.05
2023-03-21T21:31:20.943Z,8.10
2023-03-21T21:36:28.686Z,8.07
2023-03-21T21:41:37.005Z,8.10
2023-03-21T21:46:45.331Z,8.12
2023-03-21T21:51:52.829Z,8.13
2023-03-21T21:57:00.495Z,8.08
2023-03-21T22:02:07.830Z,8.10
2023-03-21T22:07:18.165Z,8.13
2023-03-21T22:12:29.184Z,8.12
2023-03-21T22:17:38.906Z,8.05
2023-03-21T22:22:46.642Z,7.93
2023-03-21T22:27:54.562Z,7.88
2023-03-21T22:33:09.606Z,7.84
2023-03-21T22:38:24.610Z,7.80
2023-03-21T22:43:34.490Z,7.73
2023-03-21T22:48:42.521Z,7.73
2023-03-21T22:53:50.220Z,7.74
2023-03-21T22:59:00.554Z,7.82
2023-03-21T23:04:09.047Z,7.88
2023-03-21T23:09:17.761Z,7.84
2023-03-21T23:14:25.889Z,7.75
2023-03-21T23:19:33.605Z,7.75
2023-03-21T23:24:41.873Z,7.80
2023-03-21T23:29:51.892Z,7.85
2023-03-21T23:34:59.621Z,7.89
2023-03-21T23:40:09.423Z,7.81
2023-03-21T23:45:17.291Z,7.66
2023-03-21T23:50:26.036Z,7.60
2023-03-21T23:55:34.383Z,7.51
